Time;durP1;ratioP1;P1;durP2;ratioP2;P2;SDS_P1;SDS_P2;PMS_P1;PMS_P2;Temp;Humidity;BMP_temperature;BMP_pressure;BME280_temperature;BME280_humidity;BME280_pressure;Samples;Min_cycle;Max_cycle;Signal;HPM_P1;HPM_P2
2022/07/17 00:00:45;;;;;;;4.40;0.85;;;10.70;99.90;;;;;;4994875;28;20073;-83
2022/07/17 00:03:15;;;;;;;3.35;0.85;;;10.60;99.90;;;;;;4994119;28;20116;-83
2022/07/17 00:05:42;;;;;;;4.10;1.08;;;10.60;99.90;;;;;;4995525;28;20053;-83
2022/07/17 00:08:09;;;;;;;3.67;1.00;;;10.50;99.90;;;;;;4999767;28;20041;-82
2022/07/17 00:10:37;;;;;;;1.85;0.70;;;10.50;99.90;;;;;;4993843;28;20057;-83
2022/07/17 00:13:03;;;;;;;7.82;1.70;;;10.40;99.90;;;;;;4980538;28;20057;-83
2022/07/17 00:15:29;;;;;;;2.67;1.00;;;10.30;99.90;;;;;;4985926;28;20045;-83
2022/07/17 00:17:55;;;;;;;3.22;0.93;;;10.30;99.90;;;;;;4978247;28;20030;-83
2022/07/17 00:20:23;;;;;;;5.05;1.13;;;10.30;99.90;;;;;;4995007;28;20424;-80
2022/07/17 00:22:49;;;;;;;1.63;0.77;;;10.30;99.90;;;;;;4983406;28;20054;-80
2022/07/17 00:25:14;;;;;;;6.35;1.20;;;10.20;99.90;;;;;;4999705;28;20069;-80
2022/07/17 00:27:40;;;;;;;3.40;1.10;;;10.20;99.90;;;;;;5007451;28;20174;-81
2022/07/17 00:30:07;;;;;;;2.10;1.10;;;10.20;99.90;;;;;;5005714;28;20057;-81
2022/07/17 00:32:33;;;;;;;2.75;1.08;;;10.20;99.90;;;;;;4991943;28;20133;-80
2022/07/17 00:34:59;;;;;;;3.97;1.50;;;10.20;99.90;;;;;;4998958;28;20125;-81
2022/07/17 00:37:24;;;;;;;3.60;1.75;;;10.20;99.90;;;;;;4989379;28;20062;-81
2022/07/17 00:39:50;;;;;;;2.17;0.65;;;10.20;99.90;;;;;;4997599;28;20088;-81
2022/07/17 00:42:16;;;;;;;2.53;0.90;;;10.30;99.90;;;;;;4995022;28;20042;-81
2022/07/17 00:44:42;;;;;;;3.15;1.30;;;10.20;99.90;;;;;;4995024;28;20045;-81
2022/07/17 00:47:16;;;;;;;4.10;1.20;;;10.10;99.90;;;;;;4971525;28;20045;-83
2022/07/17 00:49:43;;;;;;;3.42;0.90;;;10.00;99.90;;;;;;4992878;28;20038;-84
2022/07/17 00:52:12;;;;;;;3.50;1.27;;;10.00;99.90;;;;;;4994026;28;20034;-83
2022/07/17 00:54:39;;;;;;;6.63;1.02;;;9.90;99.90;;;;;;4977769;28;20068;-85
2022/07/17 00:57:14;;;;;;;3.05;0.80;;;9.90;99.90;;;;;;4993411;28;20046;-83
2022/07/17 00:59:40;;;;;;;2.40;1.20;;;9.80;99.90;;;;;;4978158;28;20378;-83
2022/07/17 01:02:07;;;;;;;4.10;0.60;;;9.70;99.90;;;;;;4994092;28;20361;-82
2022/07/17 01:04:34;;;;;;;1.35;0.63;;;9.70;99.90;;;;;;4994639;28;20026;-82
2022/07/17 01:07:01;;;;;;;2.35;0.88;;;9.70;99.90;;;;;;4991407;28;20115;-82
2022/07/17 01:09:28;;;;;;;3.35;0.98;;;9.60;99.90;;;;;;5001940;28;20496;-81
2022/07/17 01:11:55;;;;;;;6.13;0.88;;;9.60;99.90;;;;;;4982276;28;20043;-82
2022/07/17 01:14:21;;;;;;;2.35;0.60;;;9.60;99.90;;;;;;4976014;28;20049;-82
2022/07/17 01:16:47;;;;;;;2.25;1.10;;;9.60;99.90;;;;;;4967550;28;20540;-82
2022/07/17 01:19:13;;;;;;;3.42;0.90;;;9.60;99.90;;;;;;4993148;28;20415;-82
2022/07/17 01:21:41;;;;;;;1.75;0.65;;;9.60;99.90;;;;;;4981314;28;20037;-83
2022/07/17 01:24:06;;;;;;;1.67;0.70;;;9.60;99.90;;;;;;4997567;28;20034;-83
2022/07/17 01:26:32;;;;;;;4.65;0.90;;;9.50;99.90;;;;;;5001261;28;20046;-84
2022/07/17 01:28:58;;;;;;;3.60;0.93;;;9.50;99.90;;;;;;4993082;28;20082;-83
2022/07/17 01:31:23;;;;;;;4.47;0.80;;;9.40;99.90;;;;;;4978297;28;20044;-84
2022/07/17 01:33:49;;;;;;;5.88;0.88;;;9.40;99.90;;;;;;4989842;28;20508;-83
2022/07/17 01:36:15;;;;;;;1.88;0.63;;;9.40;99.90;;;;;;4999102;28;20030;-83
2022/07/17 01:38:40;;;;;;;2.83;0.82;;;9.40;99.90;;;;;;4996607;28;20041;-83
2022/07/17 01:41:06;;;;;;;1.80;0.60;;;9.40;99.90;;;;;;4991544;28;20039;-83
2022/07/17 01:43:32;;;;;;;3.15;1.00;;;9.40;99.90;;;;;;4978002;28;20046;-84
2022/07/17 01:45:57;;;;;;;0.95;0.40;;;9.40;99.90;;;;;;4963839;28;20042;-83
2022/07/17 01:48:25;;;;;;;3.28;0.77;;;9.40;99.90;;;;;;4980903;28;20037;-84
2022/07/17 01:50:51;;;;;;;4.30;0.45;;;9.40;99.90;;;;;;4997173;28;20074;-82
2022/07/17 01:53:16;;;;;;;5.57;0.50;;;9.40;99.90;;;;;;4997527;28;20069;-82
2022/07/17 01:55:42;;;;;;;1.35;0.47;;;9.30;99.90;;;;;;4997231;28;20038;-82
2022/07/17 01:58:07;;;;;;;1.42;0.40;;;9.20;99.90;;;;;;4972443;28;20084;-82
2022/07/17 02:00:33;;;;;;;1.60;0.50;;;9.20;99.90;;;;;;4997332;28;20072;-82
2022/07/17 02:02:58;;;;;;;2.15;0.85;;;9.10;99.90;;;;;;4997251;28;20598;-81
2022/07/17 02:05:24;;;;;;;2.15;1.00;;;9.20;99.90;;;;;;4997103;28;20396;-81
2022/07/17 02:07:50;;;;;;;2.70;0.60;;;9.20;99.90;;;;;;4996334;28;20037;-83
2022/07/17 02:10:15;;;;;;;2.33;0.70;;;9.10;99.90;;;;;;4981813;28;20046;-82
2022/07/17 02:12:43;;;;;;;6.25;0.50;;;9.10;99.90;;;;;;4989387;28;20033;-83
2022/07/17 02:15:08;;;;;;;3.10;0.52;;;9.20;99.90;;;;;;4966551;28;20437;-81
2022/07/17 02:17:34;;;;;;;5.55;0.45;;;9.10;99.90;;;;;;4982371;28;20113;-81
2022/07/17 02:20:00;;;;;;;1.95;0.40;;;9.20;99.90;;;;;;4996760;28;20045;-81
2022/07/17 02:22:25;;;;;;;1.77;0.38;;;9.10;99.90;;;;;;4980795;28;20049;-81
2022/07/17 02:24:51;;;;;;;2.63;0.40;;;9.10;99.90;;;;;;4996870;28;20037;-82
2022/07/17 02:27:16;;;;;;;2.45;0.50;;;9.10;99.90;;;;;;4982067;28;20042;-81
2022/07/17 02:29:42;;;;;;;2.45;0.60;;;9.10;99.90;;;;;;4985755;28;20440;-81
2022/07/17 02:32:07;;;;;;;2.83;0.65;;;9.00;99.90;;;;;;4977594;28;20035;-81
2022/07/17 02:34:33;;;;;;;2.83;0.70;;;9.00;99.90;;;;;;4977542;28;20074;-81
2022/07/17 02:36:58;;;;;;;5.97;0.93;;;9.00;99.90;;;;;;4968753;28;20531;-81
2022/07/17 02:39:24;;;;;;;2.22;0.43;;;9.00;99.90;;;;;;4996765;28;20038;-81
2022/07/17 02:41:49;;;;;;;4.00;0.80;;;9.10;99.90;;;;;;4996560;28;20046;-81
2022/07/17 02:44:15;;;;;;;2.78;0.65;;;9.10;99.90;;;;;;4996575;28;20120;-81
2022/07/17 02:46:40;;;;;;;5.72;0.65;;;9.00;99.90;;;;;;5002527;28;20053;-81
2022/07/17 02:49:06;;;;;;;2.08;0.82;;;9.10;99.90;;;;;;5008019;28;20021;-81
2022/07/17 02:51:32;;;;;;;3.50;1.27;;;9.10;99.90;;;;;;5012543;28;20049;-81
2022/07/17 02:53:57;;;;;;;3.05;0.40;;;9.20;99.90;;;;;;5011523;28;20048;-81
2022/07/17 02:56:23;;;;;;;1.42;0.60;;;9.10;99.90;;;;;;5014114;28;20034;-80
2022/07/17 02:58:48;;;;;;;2.08;0.30;;;9.10;99.90;;;;;;5004002;28;20089;-81
2022/07/17 03:01:14;;;;;;;1.55;0.32;;;9.00;99.90;;;;;;4983404;28;20313;-81
2022/07/17 03:03:40;;;;;;;1.98;0.40;;;9.00;99.90;;;;;;4980754;28;20045;-81
2022/07/17 03:06:05;;;;;;;2.75;0.70;;;8.90;99.90;;;;;;4962286;28;20042;-81
2022/07/17 03:08:31;;;;;;;3.22;0.68;;;8.90;99.90;;;;;;4996084;28;20460;-81
2022/07/17 03:10:57;;;;;;;1.83;0.80;;;8.80;99.90;;;;;;4998245;28;20046;-80
2022/07/17 03:13:22;;;;;;;2.50;0.82;;;8.80;99.90;;;;;;4998306;28;20492;-82
2022/07/17 03:15:48;;;;;;;2.95;0.88;;;8.80;99.90;;;;;;4981515;28;20038;-80
2022/07/17 03:18:13;;;;;;;4.13;0.70;;;8.80;99.90;;;;;;4988521;28;20477;-80
2022/07/17 03:20:39;;;;;;;6.47;1.67;;;8.80;99.90;;;;;;4980861;28;20042;-81
2022/07/17 03:23:04;;;;;;;2.05;0.90;;;8.90;99.90;;;;;;4996604;28;20042;-80
2022/07/17 03:25:30;;;;;;;2.25;0.95;;;8.80;99.90;;;;;;4979689;28;20506;-80
2022/07/17 03:27:56;;;;;;;1.10;0.60;;;8.80;99.90;;;;;;4983858;28;20136;-80
2022/07/17 03:30:21;;;;;;;2.13;0.65;;;8.80;99.90;;;;;;4971314;28;20126;-80
2022/07/17 03:32:47;;;;;;;6.07;1.23;;;8.80;99.90;;;;;;4979708;28;20037;-81
2022/07/17 03:35:13;;;;;;;1.88;0.70;;;8.70;99.90;;;;;;4996178;28;20045;-80
2022/07/17 03:37:38;;;;;;;3.20;0.60;;;8.70;99.90;;;;;;4971565;28;20034;-80
2022/07/17 03:40:06;;;;;;;9.13;1.30;;;8.60;99.90;;;;;;4980215;28;20041;-80
2022/07/17 03:42:32;;;;;;;6.57;0.80;;;8.60;99.90;;;;;;4997240;28;20075;-80
2022/07/17 03:44:57;;;;;;;3.50;0.82;;;8.60;99.90;;;;;;5002793;28;20041;-81
2022/07/17 03:47:23;;;;;;;3.83;0.75;;;8.60;99.90;;;;;;4993548;28;20046;-81
2022/07/17 03:49:48;;;;;;;5.53;1.00;;;8.60;99.90;;;;;;4998693;28;20046;-82
2022/07/17 03:52:14;;;;;;;3.00;0.93;;;8.60;99.90;;;;;;4999810;28;20030;-82
2022/07/17 03:54:39;;;;;;;2.05;0.52;;;8.60;99.90;;;;;;4987408;28;20077;-82
2022/07/17 03:57:05;;;;;;;5.57;1.17;;;8.60;99.90;;;;;;4968779;28;20026;-82
2022/07/17 03:59:31;;;;;;;16.75;1.73;;;8.50;99.90;;;;;;4996147;28;20091;-82
2022/07/17 04:01:56;;;;;;;2.50;0.70;;;8.50;99.90;;;;;;4998150;28;20042;-81
2022/07/17 04:04:22;;;;;;;10.10;1.65;;;8.50;99.90;;;;;;4998619;28;20092;-82
2022/07/17 04:06:47;;;;;;;3.47;0.65;;;8.50;99.90;;;;;;4978525;28;20038;-82
2022/07/17 04:09:13;;;;;;;3.15;0.98;;;8.50;99.90;;;;;;4993414;28;20030;-82
2022/07/17 04:11:38;;;;;;;1.33;0.60;;;8.50;99.90;;;;;;4979381;28;20034;-82
2022/07/17 04:14:04;;;;;;;3.80;0.70;;;8.50;99.90;;;;;;4980752;28;20477;-82
2022/07/17 04:16:29;;;;;;;4.15;0.93;;;8.60;99.90;;;;;;4987571;28;20038;-82
2022/07/17 04:18:55;;;;;;;3.00;0.98;;;8.60;99.90;;;;;;4997076;28;20061;-82
2022/07/17 04:21:21;;;;;;;3.17;0.70;;;8.70;99.90;;;;;;4996942;28;20075;-81
2022/07/17 04:23:47;;;;;;;14.48;2.55;;;8.70;99.90;;;;;;4996453;28;20042;-81
2022/07/17 04:26:12;;;;;;;4.32;0.90;;;8.80;99.90;;;;;;4985523;28;20496;-83
2022/07/17 04:28:39;;;;;;;4.95;0.60;;;8.90;99.90;;;;;;5005650;28;20051;-83
2022/07/17 04:31:05;;;;;;;2.35;0.40;;;9.00;99.90;;;;;;4995644;28;20583;-83
2022/07/17 04:33:30;;;;;;;3.53;0.65;;;9.10;99.90;;;;;;4995374;28;20129;-83
2022/07/17 04:35:56;;;;;;;4.63;0.80;;;9.20;99.90;;;;;;4995846;28;20042;-83
2022/07/17 04:38:22;;;;;;;5.80;2.08;;;9.30;99.90;;;;;;4995071;28;20044;-83
2022/07/17 04:40:47;;;;;;;6.18;0.88;;;9.40;99.90;;;;;;4994729;28;20441;-83
2022/07/17 04:43:13;;;;;;;3.15;0.55;;;9.50;99.90;;;;;;4997123;28;20125;-83
2022/07/17 04:45:38;;;;;;;4.82;1.00;;;9.50;99.90;;;;;;4994368;28;20408;-83
2022/07/17 04:48:04;;;;;;;1.27;0.68;;;9.60;99.90;;;;;;4986733;28;20511;-83
2022/07/17 04:50:30;;;;;;;3.88;1.25;;;9.70;99.90;;;;;;4996773;28;20425;-83
2022/07/17 04:52:56;;;;;;;1.67;1.00;;;9.80;99.90;;;;;;4998470;28;20494;-83
2022/07/17 04:55:23;;;;;;;2.58;0.88;;;9.90;99.90;;;;;;4981897;28;20388;-83
2022/07/17 04:57:48;;;;;;;2.63;0.77;;;10.00;99.90;;;;;;4998395;28;20070;-83
2022/07/17 05:00:15;;;;;;;8.40;1.52;;;10.10;99.90;;;;;;4998422;28;20038;-83
2022/07/17 05:02:41;;;;;;;2.28;0.95;;;10.20;99.90;;;;;;4997684;28;20054;-83
2022/07/17 05:05:06;;;;;;;1.52;0.70;;;10.30;99.90;;;;;;4998248;28;20068;-83
2022/07/17 05:07:32;;;;;;;5.30;1.00;;;10.50;99.90;;;;;;4997203;28;20132;-83
2022/07/17 05:09:58;;;;;;;2.03;1.00;;;10.60;99.90;;;;;;4985052;28;20047;-83
2022/07/17 05:12:23;;;;;;;1.75;0.75;;;10.70;99.90;;;;;;4978455;28;20135;-83
2022/07/17 05:14:49;;;;;;;2.53;1.15;;;10.90;99.90;;;;;;4978725;28;20065;-83
2022/07/17 05:17:14;;;;;;;4.15;1.10;;;11.00;99.90;;;;;;4993229;28;20095;-83
2022/07/17 05:19:40;;;;;;;3.78;1.52;;;11.10;99.90;;;;;;4987151;28;20038;-83
2022/07/17 05:22:05;;;;;;;3.42;0.93;;;11.20;99.90;;;;;;4984470;28;20248;-84
2022/07/17 05:24:33;;;;;;;4.00;1.85;;;11.30;99.90;;;;;;4981272;28;20034;-83
2022/07/17 05:26:59;;;;;;;3.03;1.17;;;11.50;99.90;;;;;;5002413;28;20480;-83
2022/07/17 05:29:25;;;;;;;3.75;0.93;;;11.70;99.90;;;;;;4973264;28;20440;-83
2022/07/17 05:31:50;;;;;;;3.08;0.90;;;11.80;99.90;;;;;;4985377;28;20121;-84
2022/07/17 05:34:16;;;;;;;3.00;0.80;;;12.00;99.90;;;;;;4990144;28;20038;-84
2022/07/17 05:36:41;;;;;;;3.30;1.23;;;12.10;99.90;;;;;;4983976;28;20042;-84
2022/07/17 05:39:08;;;;;;;9.63;1.60;;;12.20;99.90;;;;;;4975689;28;20073;-84
2022/07/17 05:41:34;;;;;;;2.85;0.98;;;12.30;99.90;;;;;;4996915;28;20490;-85
2022/07/17 05:43:59;;;;;;;6.22;1.35;;;12.30;99.90;;;;;;4991890;28;20070;-84
2022/07/17 05:46:25;;;;;;;4.10;1.27;;;12.50;99.90;;;;;;4984313;28;20038;-84
2022/07/17 05:48:50;;;;;;;10.75;1.52;;;12.60;99.90;;;;;;4985614;28;20378;-84
2022/07/17 05:51:16;;;;;;;3.05;0.70;;;12.80;99.90;;;;;;4977943;28;20046;-84
2022/07/17 05:53:42;;;;;;;2.13;0.70;;;13.00;99.90;;;;;;4977751;28;20566;-84
2022/07/17 05:56:07;;;;;;;1.95;0.60;;;13.20;99.90;;;;;;4986307;28;20071;-84
2022/07/17 05:58:33;;;;;;;2.83;0.57;;;13.30;99.90;;;;;;4997331;28;20093;-84
2022/07/17 06:00:58;;;;;;;3.30;0.68;;;13.60;99.90;;;;;;4996726;28;20049;-83
2022/07/17 06:03:24;;;;;;;3.50;0.47;;;13.60;99.90;;;;;;4996376;28;20428;-83
2022/07/17 06:05:49;;;;;;;2.90;0.50;;;13.70;99.90;;;;;;4990446;28;20473;-83
2022/07/17 06:08:15;;;;;;;4.15;0.90;;;13.90;99.90;;;;;;4990163;28;20043;-82
2022/07/17 06:10:40;;;;;;;2.33;0.60;;;14.00;99.90;;;;;;4961196;28;20492;-82
2022/07/17 06:13:06;;;;;;;8.68;0.98;;;14.10;99.90;;;;;;4964822;28;20034;-83
2022/07/17 06:15:31;;;;;;;2.80;0.70;;;14.20;99.90;;;;;;4994746;28;20048;-84
2022/07/17 06:18:03;;;;;;;2.70;0.45;;;14.30;99.90;;;;;;4989735;28;20076;-83
2022/07/17 06:20:30;;;;;;;2.72;0.38;;;14.40;99.90;;;;;;4997119;28;20084;-85
2022/07/17 06:22:55;;;;;;;3.67;0.47;;;14.60;99.90;;;;;;5000131;28;20057;-85
2022/07/17 06:25:21;;;;;;;2.03;0.50;;;14.70;99.90;;;;;;4964476;28;20034;-82
2022/07/17 06:27:47;;;;;;;2.78;0.40;;;14.80;99.90;;;;;;5003351;28;20076;-82
2022/07/17 06:30:14;;;;;;;2.13;0.70;;;14.80;99.90;;;;;;4981982;28;20121;-83
2022/07/17 06:32:40;;;;;;;2.75;0.82;;;15.00;99.90;;;;;;4996717;28;20081;-83
2022/07/17 06:35:07;;;;;;;2.22;0.28;;;15.10;99.90;;;;;;4980484;28;20460;-84
2022/07/17 06:37:32;;;;;;;1.65;0.30;;;15.20;99.90;;;;;;4979712;28;20053;-84
2022/07/17 06:39:58;;;;;;;6.57;0.60;;;15.40;99.90;;;;;;4994386;28;20041;-84
2022/07/17 06:42:23;;;;;;;4.50;0.32;;;15.50;99.90;;;;;;4980269;28;20053;-84
2022/07/17 06:44:49;;;;;;;1.27;0.40;;;15.80;99.90;;;;;;4980349;28;20131;-84
2022/07/17 06:47:14;;;;;;;5.47;1.10;;;16.10;99.90;;;;;;4982144;28;20149;-84
2022/07/17 06:49:40;;;;;;;2.85;0.30;;;16.40;99.90;;;;;;4982913;28;20065;-83
2022/07/17 06:52:06;;;;;;;9.25;0.77;;;16.70;99.90;;;;;;4989462;28;20037;-83
2022/07/17 06:54:31;;;;;;;3.17;0.30;;;17.00;99.90;;;;;;4992056;28;20037;-83
2022/07/17 06:56:57;;;;;;;5.20;0.50;;;17.30;99.90;;;;;;4980248;28;20042;-83
2022/07/17 06:59:22;;;;;;;2.83;0.20;;;17.60;99.90;;;;;;4981426;28;20131;-83
2022/07/17 07:01:48;;;;;;;2.50;0.40;;;17.50;99.90;;;;;;4997780;28;20652;-82
2022/07/17 07:04:14;;;;;;;3.10;0.50;;;17.50;99.90;;;;;;4991955;28;20052;-83
2022/07/17 07:06:39;;;;;;;5.35;0.75;;;17.60;99.90;;;;;;5017355;28;20029;-84
2022/07/17 07:09:05;;;;;;;2.95;0.50;;;17.90;99.90;;;;;;5005803;28;20057;-83
2022/07/17 07:11:31;;;;;;;0.75;0.20;;;18.50;99.90;;;;;;5016916;28;20069;-84
2022/07/17 07:13:57;;;;;;;2.58;0.30;;;18.80;99.90;;;;;;5005968;28;20037;-82
2022/07/17 07:16:22;;;;;;;4.80;0.32;;;18.60;99.90;;;;;;5017765;28;20034;-83
2022/07/17 07:18:48;;;;;;;5.10;0.20;;;18.30;99.90;;;;;;4999814;28;20129;-83
2022/07/17 07:21:13;;;;;;;1.95;0.30;;;18.10;99.90;;;;;;4987370;28;20044;-83
2022/07/17 07:23:39;;;;;;;3.33;0.32;;;18.00;99.90;;;;;;5003685;28;20053;-83
2022/07/17 07:26:05;;;;;;;3.60;0.30;;;18.00;99.90;;;;;;5005446;28;20045;-83
2022/07/17 07:28:30;;;;;;;3.40;0.63;;;18.00;99.90;;;;;;4987165;28;20042;-83
2022/07/17 07:30:56;;;;;;;2.25;0.93;;;18.10;99.90;;;;;;4977168;28;20098;-83
2022/07/17 07:33:22;;;;;;;2.22;0.57;;;18.20;99.90;;;;;;4984367;28;20467;-83
2022/07/17 07:35:47;;;;;;;4.47;0.32;;;18.30;99.90;;;;;;4992444;28;20069;-83
2022/07/17 07:38:13;;;;;;;3.03;0.38;;;18.40;99.90;;;;;;4993856;28;20129;-83
2022/07/17 07:40:39;;;;;;;2.22;0.40;;;18.50;99.90;;;;;;5001638;28;20487;-83
2022/07/17 07:43:04;;;;;;;3.35;0.40;;;18.60;99.90;;;;;;4984824;28;20048;-84
2022/07/17 07:45:31;;;;;;;5.95;0.50;;;18.70;99.90;;;;;;4988611;28;20452;-84
2022/07/17 07:47:57;;;;;;;1.85;0.20;;;18.80;99.90;;;;;;4984806;28;20039;-83
2022/07/17 07:50:24;;;;;;;4.35;0.77;;;18.80;99.90;;;;;;4993164;28;20484;-82
2022/07/17 07:52:51;;;;;;;4.05;0.22;;;18.70;99.90;;;;;;4998734;28;20042;-84
2022/07/17 07:55:17;;;;;;;2.60;0.30;;;18.60;99.90;;;;;;4981182;28;20038;-83
2022/07/17 07:57:43;;;;;;;4.32;0.40;;;18.60;99.90;;;;;;4996885;28;20030;-82
2022/07/17 08:00:11;;;;;;;4.13;0.40;;;18.70;99.90;;;;;;4994100;28;20049;-84
2022/07/17 08:02:36;;;;;;;4.18;0.35;;;18.80;99.90;;;;;;4994393;28;20048;-82
2022/07/17 08:05:02;;;;;;;2.47;0.95;;;18.90;99.90;;;;;;4993670;28;20105;-81
2022/07/17 08:07:29;;;;;;;1.80;0.30;;;19.00;99.90;;;;;;5010622;28;20044;-82
2022/07/17 08:09:55;;;;;;;1.80;0.40;;;19.20;99.90;;;;;;4997771;28;20048;-80
2022/07/17 08:12:21;;;;;;;4.47;0.38;;;19.40;99.90;;;;;;4990237;28;20279;-81
2022/07/17 08:14:47;;;;;;;2.63;0.35;;;19.60;99.90;;;;;;4988132;28;20037;-80
2022/07/17 08:17:13;;;;;;;4.45;0.45;;;19.70;99.90;;;;;;4980045;28;20034;-80
2022/07/17 08:19:38;;;;;;;3.45;0.30;;;19.80;99.90;;;;;;4986613;28;20096;-80
2022/07/17 08:22:04;;;;;;;1.85;0.30;;;19.90;99.90;;;;;;5001000;28;20042;-80
2022/07/17 08:24:29;;;;;;;53.88;37.70;;;20.10;99.90;;;;;;4996402;28;20046;-80
2022/07/17 08:26:55;;;;;;;6.20;3.22;;;20.30;99.90;;;;;;5001183;28;20046;-80
2022/07/17 08:29:20;;;;;;;32.67;18.77;;;20.40;99.90;;;;;;5004336;28;20472;-80
2022/07/17 08:31:46;;;;;;;12.20;5.10;;;20.30;99.90;;;;;;5024394;28;20072;-79
2022/07/17 08:34:14;;;;;;;12.13;7.15;;;20.10;99.90;;;;;;5004718;28;20076;-80
2022/07/17 08:36:40;;;;;;;28.50;22.20;;;20.30;99.90;;;;;;4999943;28;20078;-80
2022/07/17 08:39:06;;;;;;;8.60;2.92;;;20.40;99.90;;;;;;4987306;28;20184;-81
2022/07/17 08:41:36;;;;;;;3.13;0.40;;;20.70;99.90;;;;;;4982982;28;20112;-81
2022/07/17 08:44:03;;;;;;;5.40;0.30;;;21.00;99.90;;;;;;5000847;28;20077;-80
2022/07/17 08:46:30;;;;;;;2.15;0.40;;;21.00;99.90;;;;;;5000835;28;20068;-80
2022/07/17 08:48:59;;;;;;;2.95;0.40;;;21.00;99.90;;;;;;5000064;28;20093;-81
2022/07/17 08:51:26;;;;;;;3.90;0.45;;;21.40;99.90;;;;;;5002117;28;20177;-80
2022/07/17 08:53:52;;;;;;;2.65;0.38;;;21.20;98.70;;;;;;5001800;28;20038;-83
2022/07/17 08:56:18;;;;;;;3.22;0.93;;;21.20;98.30;;;;;;5004281;28;20108;-82
2022/07/17 08:58:44;;;;;;;1.85;0.50;;;21.40;98.20;;;;;;5004356;28;20084;-82
2022/07/17 09:01:09;;;;;;;2.53;0.63;;;21.60;99.20;;;;;;4998256;28;20061;-82
2022/07/17 09:03:36;;;;;;;3.80;0.30;;;21.80;98.40;;;;;;5011644;28;20038;-82
2022/07/17 09:06:02;;;;;;;3.15;0.38;;;21.90;97.90;;;;;;4996027;28;20039;-83
2022/07/17 09:08:32;;;;;;;2.72;0.95;;;22.00;98.40;;;;;;4989482;28;20045;-82
2022/07/17 09:10:58;;;;;;;4.95;0.77;;;22.20;96.90;;;;;;4992314;28;20093;-82
2022/07/17 09:13:30;;;;;;;3.97;0.50;;;22.40;96.50;;;;;;5001429;28;20069;-82
2022/07/17 09:16:10;;;;;;;5.10;0.40;;;22.30;96.60;;;;;;4996181;28;20064;-82
2022/07/17 09:18:48;;;;;;;2.05;0.70;;;22.30;93.50;;;;;;5007157;28;20044;-83
2022/07/17 09:21:22;;;;;;;7.47;4.72;;;22.00;93.50;;;;;;5007788;28;20064;-82
2022/07/17 09:23:59;;;;;;;2.22;0.40;;;22.20;94.00;;;;;;4996749;28;20425;-83
2022/07/17 09:26:25;;;;;;;1.55;0.28;;;22.30;94.10;;;;;;5001099;28;20057;-82
2022/07/17 09:28:51;;;;;;;4.78;0.38;;;22.40;94.30;;;;;;4983496;28;20049;-82
2022/07/17 09:31:28;;;;;;;4.07;0.30;;;22.50;93.30;;;;;;4996520;28;20046;-82
2022/07/17 09:33:55;;;;;;;3.22;0.40;;;22.80;92.80;;;;;;4997480;28;20077;-82
2022/07/17 09:36:28;;;;;;;2.53;0.30;;;23.00;91.70;;;;;;5001208;28;20095;-83
2022/07/17 09:38:57;;;;;;;2.53;0.43;;;23.40;90.10;;;;;;4994408;28;20372;-82
2022/07/17 09:41:25;;;;;;;3.75;0.32;;;23.50;90.30;;;;;;5014821;28;20037;-83
2022/07/17 09:43:57;;;;;;;5.68;0.57;;;23.30;89.80;;;;;;5006605;28;20196;-83
2022/07/17 09:46:30;;;;;;;3.40;0.38;;;23.50;89.70;;;;;;4987021;28;20050;-82
2022/07/17 09:49:09;;;;;;;2.55;0.35;;;23.70;89.00;;;;;;4993557;28;20034;-83
2022/07/17 09:51:39;;;;;;;2.42;0.30;;;23.90;83.60;;;;;;4990702;28;20037;-84
2022/07/17 09:54:06;;;;;;;1.67;0.20;;;24.10;85.40;;;;;;5002356;28;20142;-82
2022/07/17 09:56:35;;;;;;;1.10;0.30;;;24.30;87.90;;;;;;5007557;28;20334;-82
2022/07/17 09:59:07;;;;;;;1.90;0.40;;;24.50;86.10;;;;;;5001366;28;20100;-82
2022/07/17 10:01:35;;;;;;;3.22;0.50;;;24.70;82.30;;;;;;5001956;28;20100;-82
2022/07/17 10:04:01;;;;;;;2.75;0.73;;;24.50;83.00;;;;;;4997954;28;20046;-82
2022/07/17 10:06:27;;;;;;;1.65;0.20;;;24.60;82.60;;;;;;4997495;28;20120;-82
2022/07/17 10:08:53;;;;;;;3.03;0.38;;;24.60;83.50;;;;;;5005082;28;20038;-82
2022/07/17 10:11:21;;;;;;;2.25;0.32;;;24.60;81.60;;;;;;5011881;28;20037;-82
2022/07/17 10:13:48;;;;;;;1.00;0.22;;;24.60;79.20;;;;;;4999359;28;20034;-82
2022/07/17 10:16:26;;;;;;;2.33;0.30;;;24.70;79.20;;;;;;4989834;28;20046;-83
2022/07/17 10:18:54;;;;;;;2.65;0.40;;;25.00;76.70;;;;;;4983194;28;20432;-83
2022/07/17 10:21:21;;;;;;;1.27;0.52;;;25.30;75.70;;;;;;4995744;28;20049;-83
2022/07/17 10:24:06;;;;;;;2.33;0.40;;;25.40;76.00;;;;;;4998364;28;20069;-80
2022/07/17 10:26:33;;;;;;;3.45;0.63;;;25.70;75.90;;;;;;4988746;28;20089;-80
2022/07/17 10:28:59;;;;;;;9.30;0.77;;;25.80;77.30;;;;;;5019569;28;20038;-82
2022/07/17 10:31:26;;;;;;;1.92;0.40;;;25.80;76.10;;;;;;4989606;28;20092;-82
2022/07/17 10:34:01;;;;;;;1.13;0.30;;;25.90;77.70;;;;;;4998297;28;20100;-83
2022/07/17 10:36:33;;;;;;;;;;;26.10;74.00;;;;;;4997519;28;20053;-83
2022/07/17 10:39:10;;;;;;;3.55;0.57;;;26.50;69.80;;;;;;4980640;28;19929;-83
2022/07/17 10:41:36;;;;;;;2.83;0.30;;;26.40;69.90;;;;;;4988482;28;20082;-83
2022/07/17 10:44:01;;;;;;;3.08;0.30;;;26.20;70.30;;;;;;4996006;28;20076;-83
2022/07/17 10:46:28;;;;;;;7.03;0.80;;;26.20;70.60;;;;;;4995031;28;20046;-83
2022/07/17 10:48:55;;;;;;;2.97;0.35;;;26.40;72.20;;;;;;4988338;28;20048;-83
2022/07/17 10:51:24;;;;;;;2.70;0.43;;;26.60;69.00;;;;;;4983604;28;20052;-83
2022/07/17 10:53:49;;;;;;;3.20;0.63;;;26.50;69.20;;;;;;4989062;28;20045;-83
2022/07/17 10:56:17;;;;;;;3.70;0.30;;;26.60;68.80;;;;;;4978991;28;20041;-82
2022/07/17 10:58:44;;;;;;;2.90;0.60;;;26.30;67.50;;;;;;5006664;28;20163;-82
2022/07/17 11:01:17;;;;;;;2.08;0.20;;;26.30;68.40;;;;;;4989540;28;20041;-80
2022/07/17 11:03:50;;;;;;;1.70;0.25;;;26.50;69.50;;;;;;4998576;28;20044;-81
2022/07/17 11:06:20;;;;;;;3.83;0.82;;;26.60;67.60;;;;;;4997311;28;20049;-80
2022/07/17 11:08:47;;;;;;;1.38;0.30;;;26.50;65.10;;;;;;5015797;28;20042;-81
2022/07/17 11:11:15;;;;;;;3.42;0.28;;;26.00;65.10;;;;;;4989356;28;20440;-80
2022/07/17 11:13:40;;;;;;;1.73;0.40;;;25.90;64.90;;;;;;4981151;28;20099;-80
2022/07/17 11:16:06;;;;;;;2.58;0.28;;;25.80;66.60;;;;;;4985676;28;20065;-81
2022/07/17 11:18:33;;;;;;;1.58;0.20;;;26.10;67.10;;;;;;4997706;28;20033;-80
2022/07/17 11:21:01;;;;;;;2.40;0.17;;;26.20;66.20;;;;;;4998748;28;20492;-81
2022/07/17 11:23:32;;;;;;;1.75;0.45;;;26.60;65.90;;;;;;4998191;28;20456;-81
2022/07/17 11:26:05;;;;;;;3.85;0.45;;;26.50;65.20;;;;;;4997084;28;20050;-80
2022/07/17 11:28:43;;;;;;;2.78;0.35;;;26.30;66.00;;;;;;4990102;28;20100;-81
2022/07/17 11:31:18;;;;;;;2.92;0.85;;;26.50;67.60;;;;;;4990551;28;20517;-80
2022/07/17 11:34:03;;;;;;;1.00;0.20;;;26.60;65.90;;;;;;4999115;28;20129;-80
2022/07/17 11:36:33;;;;;;;3.58;0.50;;;26.90;65.70;;;;;;4998188;28;20046;-82
2022/07/17 11:39:10;;;;;;;2.97;0.60;;;26.90;64.00;;;;;;4997503;28;20033;-81
2022/07/17 11:41:39;;;;;;;3.28;0.73;;;26.80;64.70;;;;;;4988721;28;20133;-83
2022/07/17 11:44:09;;;;;;;3.72;0.30;;;27.00;64.80;;;;;;4997748;28;20037;-84
2022/07/17 11:46:36;;;;;;;3.80;0.50;;;27.40;66.40;;;;;;4997379;28;20052;-84
2022/07/17 11:49:02;;;;;;;2.38;0.30;;;27.80;63.20;;;;;;4995930;28;20050;-83
2022/07/17 11:51:34;;;;;;;1.33;0.40;;;27.70;61.40;;;;;;4995687;28;20495;-84
2022/07/17 11:54:11;;;;;;;2.08;0.30;;;27.30;61.70;;;;;;4997260;28;20050;-83
2022/07/17 11:56:37;;;;;;;9.77;0.93;;;27.00;62.10;;;;;;4996300;28;20053;-83
2022/07/17 11:59:06;;;;;;;9.05;1.02;;;26.90;63.50;;;;;;4995838;28;20037;-84
2022/07/17 12:01:44;;;;;;;3.38;0.52;;;27.10;63.60;;;;;;4994880;28;20500;-83
2022/07/17 12:04:13;;;;;;;6.70;0.63;;;27.50;62.10;;;;;;4988461;28;20118;-83
2022/07/17 12:06:39;;;;;;;4.13;0.80;;;27.60;63.70;;;;;;4995902;28;20042;-83
2022/07/17 12:09:06;;;;;;;2.25;0.40;;;28.10;61.20;;;;;;4995340;28;20032;-83
2022/07/17 12:11:31;;;;;;;5.43;0.65;;;28.40;59.00;;;;;;4997128;28;20064;-84
2022/07/17 12:14:05;;;;;;;3.38;0.30;;;28.50;58.80;;;;;;4989312;28;20170;-83
2022/07/17 12:16:34;;;;;;;2.40;0.30;;;28.10;59.60;;;;;;4997497;28;20117;-84
2022/07/17 12:19:09;;;;;;;2.03;0.38;;;28.00;61.20;;;;;;4996698;28;20455;-84
2022/07/17 12:21:53;;;;;;;1.52;0.20;;;28.20;59.90;;;;;;4996947;28;20104;-81
2022/07/17 12:24:22;;;;;;;4.22;0.57;;;28.30;57.40;;;;;;4989023;28;20046;-81
2022/07/17 12:26:48;;;;;;;1.13;0.30;;;28.10;58.80;;;;;;4977100;28;20042;-82
2022/07/17 12:29:14;;;;;;;1.40;0.30;;;28.20;59.40;;;;;;5000555;28;20127;-81
2022/07/17 12:31:40;;;;;;;1.55;0.55;;;28.50;58.40;;;;;;4977777;28;20053;-81
2022/07/17 12:34:05;;;;;;;1.33;0.20;;;28.50;57.50;;;;;;4989378;28;20388;-82
2022/07/17 12:36:31;;;;;;;2.65;0.95;;;29.00;56.80;;;;;;4996029;28;20034;-82
2022/07/17 12:38:56;;;;;;;5.47;2.47;;;29.10;56.80;;;;;;4994874;28;20066;-82
2022/07/17 12:41:22;;;;;;;3.50;1.80;;;28.90;57.90;;;;;;4993837;28;20500;-82
2022/07/17 12:43:47;;;;;;;10.82;1.05;;;29.10;58.70;;;;;;4970545;28;20044;-82
2022/07/17 12:46:13;;;;;;;3.50;0.85;;;29.40;56.50;;;;;;4994634;28;20050;-83
2022/07/17 12:48:40;;;;;;;3.50;0.93;;;29.70;55.10;;;;;;4998505;28;20045;-83